METAR Data
IDs: Format: Raw Decoded Include TAF

Data at: 1451 UTC 25 Jan 2020

KRZL 251435Z AUTO 24013KT 2SM -SN OVC005 00/00 A2986 RMK AO2